aviador You're here:

KGWW Decoded Metar

GOLDSBORO/WAYNE in NC, USA
Report Time2018-01-17 04:15:00
UTC Time2018-01-17 05:05:15
Flight Rules vfr VFR
WindCalm
Visibility9999 m
Phenomena:N/A
Clouds:N/A
Expected CloudBase > 400 ft AGL from Temp-Dew spread
CeilingNone
Temp-1°C (ISA -16)
Dew Point-2°C (93% RH)
AAT-3.3°C
QNH1027 hPa
Density Alt-2,195 ft
Elevation135 ft
Report Wrong Elevation
Raw Report
KGWW 170415Z AUTO 00000KT 10SM CLR M01/M02 A3033 RMK AO2
T10101023=

Extra information for KGWW:More info

Metar Taf Metar & Taf Last 4 Metars F.Rules Stats Wind Profile Meteogram Temp Stats Airport Information Weather charts Add Link Nearby VenuesMetar ALERT Operation Metar Decoded Social comments

AIRNAV info for KGWW